Time;durP1;ratioP1;P1;durP2;ratioP2;P2;SDS_P1;SDS_P2;PMS_P1;PMS_P2;Temp;Humidity;BMP_temperature;BMP_pressure;BME280_temperature;BME280_humidity;BME280_pressure;Samples;Min_cycle;Max_cycle;Signal;HPM_P1;HPM_P2
2021/12/07 00:01:16;;;;;;;;;;;20.50;39.00;;;;;;5068748;28;19925;-59
2021/12/07 00:03:43;;;;;;;;;;;20.50;39.00;;;;;;5068372;28;19925;-57
2021/12/07 00:06:10;;;;;;;;;;;20.50;39.00;;;;;;5053683;28;19979;-57
2021/12/07 00:08:37;;;;;;;;;;;20.50;39.00;;;;;;5068672;28;19991;-60
2021/12/07 00:11:04;;;;;;;;;;;20.50;39.00;;;;;;5068557;28;20290;-57
2021/12/07 00:13:36;;;;;;;;;;;20.50;38.90;;;;;;5051819;28;19925;-62
2021/12/07 00:16:03;;;;;;;;;;;20.50;38.90;;;;;;5053181;28;19947;-63
2021/12/07 00:18:30;;;;;;;;;;;20.50;39.00;;;;;;5050688;28;19933;-56
2021/12/07 00:20:57;;;;;;;;;;;20.50;38.90;;;;;;5053462;28;20413;-62
2021/12/07 00:23:23;;;;;;;;;;;20.50;38.90;;;;;;5085271;28;20013;-58
2021/12/07 00:25:50;;;;;;;;;;;20.50;38.90;;;;;;5053207;28;20388;-59
2021/12/07 00:28:19;;;;;;;;;;;20.40;38.70;;;;;;5050980;28;20406;-59
2021/12/07 00:30:49;;;;;;;;;;;20.40;39.30;;;;;;5067260;28;19935;-57
2021/12/07 00:33:29;;;;;;;;;;;20.40;38.70;;;;;;5051361;28;19935;-57
2021/12/07 00:35:56;;;;;;;;;;;20.40;38.70;;;;;;5047825;28;20370;-56
2021/12/07 00:38:23;;;;;;;;;;;20.40;38.70;;;;;;5059201;28;19932;-58
2021/12/07 00:40:50;;;;;;;;;;;20.40;38.70;;;;;;5067361;28;20380;-60
2021/12/07 00:43:17;;;;;;;;;;;20.40;38.70;;;;;;5051715;28;20019;-58
2021/12/07 00:45:45;;;;;;;;;;;20.40;38.70;;;;;;5067719;28;19925;-61
2021/12/07 00:48:14;;;;;;;;;;;20.40;38.70;;;;;;5068142;28;20403;-57
2021/12/07 00:50:41;;;;;;;;;;;20.40;38.70;;;;;;5084784;28;19925;-57
2021/12/07 00:53:08;;;;;;;;;;;20.40;38.70;;;;;;5052455;28;19968;-60
2021/12/07 00:55:35;;;;;;;;;;;20.40;38.70;;;;;;5051444;28;19924;-60
2021/12/07 00:58:11;;;;;;;;;;;20.40;38.70;;;;;;5067858;28;19983;-59
2021/12/07 01:00:38;;;;;;;;;;;20.40;38.60;;;;;;5067802;28;19940;-56
2021/12/07 01:03:05;;;;;;;;;;;20.40;38.70;;;;;;5067940;28;20015;-58
2021/12/07 01:05:35;;;;;;;;;;;20.40;38.60;;;;;;5067634;28;19931;-58
2021/12/07 01:08:20;;;;;;;;;;;20.40;38.70;;;;;;5067640;28;20456;-55
2021/12/07 01:24:44;;;;;;;;;;;20.40;38.50;;;;;;5051526;28;19971;-60
2021/12/07 01:27:11;;;;;;;;;;;20.40;38.50;;;;;;5083518;28;19928;-58
2021/12/07 01:29:40;;;;;;;;;;;20.40;38.60;;;;;;5083650;28;19977;-54
2021/12/07 01:32:17;;;;;;;;;;;20.30;38.40;;;;;;5066503;28;19924;-59
2021/12/07 01:35:15;;;;;;;;;;;20.40;38.50;;;;;;5083597;28;19925;-56
2021/12/07 01:40:38;;;;;;;;;;;20.30;38.40;;;;;;5080685;28;19931;-58
2021/12/07 01:46:12;;;;;;;;;;;20.30;38.40;;;;;;5038604;28;19961;-56
2021/12/07 01:59:37;;;;;;;;;;;20.30;38.50;;;;;;5050658;28;19956;-58
2021/12/07 02:02:04;;;;;;;;;;;20.30;38.50;;;;;;5082692;28;19936;-55
2021/12/07 02:04:31;;;;;;;;;;;20.30;38.50;;;;;;5051076;28;19971;-56
2021/12/07 02:06:57;;;;;;;;;;;20.30;38.50;;;;;;5066423;28;19936;-60
2021/12/07 02:09:25;;;;;;;;;;;20.30;38.50;;;;;;5065920;28;20024;-60
2021/12/07 02:11:58;;;;;;;;;;;20.30;38.50;;;;;;5065099;28;19931;-60
2021/12/07 02:14:27;;;;;;;;;;;20.30;38.50;;;;;;5049026;28;20205;-58
2021/12/07 02:16:54;;;;;;;;;;;20.30;38.50;;;;;;5048955;28;19955;-60
2021/12/07 02:19:21;;;;;;;;;;;20.30;38.50;;;;;;5048284;28;19925;-59
2021/12/07 02:21:50;;;;;;;;;;;20.30;38.50;;;;;;5066112;28;19924;-60
2021/12/07 02:24:17;;;;;;;;;;;20.30;38.50;;;;;;5050871;28;19925;-59
2021/12/07 02:26:43;;;;;;;;;;;20.30;38.50;;;;;;5065718;28;19928;-59
2021/12/07 02:29:10;;;;;;;;;;;20.30;38.50;;;;;;5065743;28;19989;-56
2021/12/07 02:31:37;;;;;;;;;;;20.30;38.50;;;;;;5065888;28;20373;-56
2021/12/07 02:34:04;;;;;;;;;;;20.30;38.50;;;;;;5049835;28;19929;-61
2021/12/07 02:36:30;;;;;;;;;;;20.30;38.50;;;;;;5050901;28;19925;-57
2021/12/07 02:38:59;;;;;;;;;;;20.30;38.50;;;;;;5066519;28;19932;-56
2021/12/07 02:41:25;;;;;;;;;;;20.30;38.50;;;;;;5051069;28;20372;-57
2021/12/07 02:43:52;;;;;;;;;;;20.30;38.50;;;;;;5049429;28;20009;-62
2021/12/07 02:46:19;;;;;;;;;;;20.30;38.50;;;;;;5065824;28;19928;-54
2021/12/07 02:48:45;;;;;;;;;;;20.30;38.50;;;;;;5066380;28;19925;-56
2021/12/07 02:51:12;;;;;;;;;;;20.30;38.50;;;;;;5051027;28;19990;-62
2021/12/07 02:53:39;;;;;;;;;;;20.30;38.50;;;;;;5049023;28;19964;-56
2021/12/07 02:56:08;;;;;;;;;;;20.30;38.50;;;;;;5050376;28;19932;-60
2021/12/07 02:58:36;;;;;;;;;;;20.30;38.50;;;;;;5050541;28;19929;-58
2021/12/07 03:01:12;;;;;;;;;;;20.30;38.50;;;;;;5049757;28;19983;-55
2021/12/07 03:03:49;;;;;;;;;;;20.30;38.50;;;;;;5065570;28;19925;-55
2021/12/07 03:06:22;;;;;;;;;;;20.30;38.50;;;;;;5051519;28;19929;-58
2021/12/07 03:09:20;;;;;;;;;;;20.30;38.50;;;;;;5053080;28;20024;-59
2021/12/07 03:28:14;;;;;;;;;;;20.30;38.40;;;;;;5069844;28;19931;-58
2021/12/07 03:30:40;;;;;;;;;;;20.30;38.40;;;;;;5052568;28;19960;-56
2021/12/07 03:33:07;;;;;;;;;;;20.30;38.40;;;;;;5085843;28;20015;-56
2021/12/07 03:35:34;;;;;;;;;;;20.30;38.40;;;;;;5086380;28;20027;-57
2021/12/07 03:38:01;;;;;;;;;;;20.30;38.40;;;;;;5069230;28;19928;-56
2021/12/07 03:40:27;;;;;;;;;;;20.30;38.40;;;;;;5069243;28;20301;-57
2021/12/07 03:42:54;;;;;;;;;;;20.30;38.40;;;;;;5068846;28;19932;-58
2021/12/07 03:45:24;;;;;;;;;;;20.30;38.40;;;;;;5052337;28;19925;-55
2021/12/07 03:47:50;;;;;;;;;;;20.30;38.40;;;;;;5069053;28;20250;-57
2021/12/07 03:50:20;;;;;;;;;;;20.30;38.40;;;;;;5068849;28;19925;-58
2021/12/07 03:52:47;;;;;;;;;;;20.30;38.40;;;;;;5068925;28;20034;-58
2021/12/07 03:55:16;;;;;;;;;;;20.30;38.40;;;;;;5053443;28;19968;-56
2021/12/07 03:57:43;;;;;;;;;;;20.30;38.40;;;;;;5053438;28;19931;-59
2021/12/07 04:00:11;;;;;;;;;;;20.30;38.30;;;;;;5052233;28;20007;-58
2021/12/07 04:02:40;;;;;;;;;;;20.30;38.30;;;;;;5052693;28;19946;-57
2021/12/07 04:05:11;;;;;;;;;;;20.30;38.40;;;;;;5051614;28;19931;-57
2021/12/07 04:07:38;;;;;;;;;;;20.30;38.40;;;;;;5069091;28;20430;-61
2021/12/07 04:10:06;;;;;;;;;;;20.30;38.30;;;;;;5068677;28;19968;-55
2021/12/07 04:12:33;;;;;;;;;;;20.30;38.30;;;;;;5053307;28;19931;-57
2021/12/07 04:15:03;;;;;;;;;;;20.30;38.30;;;;;;5067871;28;19929;-59
2021/12/07 04:17:29;;;;;;;;;;;20.30;38.30;;;;;;5050962;28;19931;-59
2021/12/07 04:19:58;;;;;;;;;;;20.30;38.30;;;;;;5039278;28;19932;-58
2021/12/07 04:22:25;;;;;;;;;;;20.30;38.30;;;;;;5048800;28;20023;-57
2021/12/07 04:24:51;;;;;;;;;;;20.30;38.30;;;;;;5045112;28;20018;-59
2021/12/07 04:27:18;;;;;;;;;;;20.30;38.30;;;;;;5051614;28;20278;-58
2021/12/07 04:29:45;;;;;;;;;;;20.30;38.30;;;;;;5051053;28;19976;-60
2021/12/07 04:32:13;;;;;;;;;;;20.30;38.30;;;;;;5068370;28;19960;-60
2021/12/07 04:34:40;;;;;;;;;;;20.30;38.30;;;;;;5068069;28;20024;-58
2021/12/07 04:37:08;;;;;;;;;;;20.30;38.30;;;;;;5053080;28;19932;-60
2021/12/07 04:39:35;;;;;;;;;;;20.30;38.20;;;;;;5067924;28;20050;-56
2021/12/07 04:42:01;;;;;;;;;;;20.30;38.30;;;;;;5052514;28;19924;-59
2021/12/07 04:44:28;;;;;;;;;;;20.30;38.20;;;;;;5067304;28;19935;-58
2021/12/07 04:47:06;;;;;;;;;;;20.30;38.20;;;;;;5068537;28;19932;-58
2021/12/07 04:49:56;;;;;;;;;;;20.20;38.10;;;;;;5052926;28;20019;-61
2021/12/07 04:57:52;;;;;;;;;;;20.30;38.20;;;;;;5052839;28;20019;-56
2021/12/07 05:00:20;;;;;;;;;;;20.20;38.10;;;;;;5067845;28;19991;-59
2021/12/07 05:02:52;;;;;;;;;;;20.20;38.10;;;;;;5067950;28;19967;-55
2021/12/07 05:05:20;;;;;;;;;;;20.30;38.10;;;;;;5050944;28;19936;-54
2021/12/07 05:07:52;;;;;;;;;;;20.30;38.10;;;;;;5067677;28;19925;-60
2021/12/07 05:10:27;;;;;;;;;;;20.20;38.10;;;;;;5050664;28;19928;-59
2021/12/07 05:16:09;;;;;;;;;;;20.20;38.10;;;;;;4970704;28;19926;-60
2021/12/07 05:24:23;;;;;;;;;;;20.30;38.10;;;;;;4954331;28;19966;-57
2021/12/07 05:37:56;;;;;;;;;;;20.20;38.60;;;;;;5025314;28;19998;-51
2021/12/07 05:40:25;;;;;;;;;;;20.20;38.00;;;;;;5083189;28;19924;-57
2021/12/07 05:42:53;;;;;;;;;;;20.20;38.00;;;;;;5051301;28;20285;-57
2021/12/07 05:45:21;;;;;;;;;;;20.20;38.00;;;;;;5065536;28;20019;-61
2021/12/07 05:47:48;;;;;;;;;;;20.20;38.00;;;;;;5051065;28;20015;-51
2021/12/07 05:50:15;;;;;;;;;;;20.20;38.00;;;;;;5051008;28;20278;-59
2021/12/07 05:52:42;;;;;;;;;;;20.20;37.90;;;;;;5066884;28;19925;-52
2021/12/07 05:55:09;;;;;;;;;;;20.20;37.90;;;;;;5066494;28;20247;-60
2021/12/07 05:57:37;;;;;;;;;;;20.20;38.00;;;;;;5029842;28;20381;-54
2021/12/07 06:00:05;;;;;;;;;;;20.20;38.00;;;;;;5044637;28;19936;-59
2021/12/07 06:02:32;;;;;;;;;;;20.20;37.90;;;;;;5064984;28;19933;-54
2021/12/07 06:04:59;;;;;;;;;;;20.20;37.90;;;;;;5056536;28;19967;-51
2021/12/07 06:07:25;;;;;;;;;;;20.20;37.90;;;;;;5075387;28;20400;-57
2021/12/07 06:09:52;;;;;;;;;;;20.20;37.90;;;;;;5079947;28;19929;-53
2021/12/07 06:12:19;;;;;;;;;;;20.20;37.90;;;;;;5065278;28;19964;-55
2021/12/07 06:14:47;;;;;;;;;;;20.20;37.90;;;;;;5049255;28;19928;-60
2021/12/07 06:17:13;;;;;;;;;;;20.20;37.90;;;;;;5082310;28;20015;-58
2021/12/07 06:19:40;;;;;;;;;;;20.20;37.90;;;;;;5082683;28;19928;-57
2021/12/07 06:22:08;;;;;;;;;;;20.20;37.90;;;;;;5050148;28;19943;-62
2021/12/07 06:24:34;;;;;;;;;;;20.20;37.90;;;;;;5063699;28;20320;-54
2021/12/07 06:27:01;;;;;;;;;;;20.20;37.90;;;;;;5052119;28;19940;-59
2021/12/07 06:29:28;;;;;;;;;;;20.20;38.50;;;;;;5081892;28;20040;-55
2021/12/07 06:31:56;;;;;;;;;;;20.20;37.90;;;;;;5081672;28;19928;-53
2021/12/07 06:34:23;;;;;;;;;;;20.20;37.90;;;;;;5048470;28;19936;-54
2021/12/07 06:36:50;;;;;;;;;;;20.20;37.90;;;;;;5081708;28;20400;-57
2021/12/07 06:39:18;;;;;;;;;;;20.20;37.90;;;;;;5081637;28;19929;-57
2021/12/07 06:41:45;;;;;;;;;;;20.20;37.90;;;;;;5051725;28;20413;-55
2021/12/07 06:44:11;;;;;;;;;;;20.20;37.80;;;;;;5085871;28;19955;-55
2021/12/07 06:46:38;;;;;;;;;;;20.20;37.90;;;;;;5053927;28;19928;-57
2021/12/07 06:49:06;;;;;;;;;;;20.20;37.80;;;;;;5069666;28;20265;-53
2021/12/07 06:51:33;;;;;;;;;;;20.20;37.80;;;;;;5069953;28;20242;-57
2021/12/07 06:53:59;;;;;;;;;;;20.20;37.80;;;;;;5054835;28;20409;-58
2021/12/07 06:56:28;;;;;;;;;;;20.20;37.80;;;;;;5054359;28;20043;-57
2021/12/07 06:58:54;;;;;;;;;;;20.20;37.80;;;;;;5054490;28;20462;-57
2021/12/07 07:01:21;;;;;;;;;;;20.20;37.80;;;;;;5055005;28;19925;-60
2021/12/07 07:03:48;;;;;;;;;;;20.20;37.80;;;;;;5054241;28;20303;-54
2021/12/07 07:06:16;;;;;;;;;;;20.20;37.80;;;;;;5086000;28;19994;-58
2021/12/07 07:08:43;;;;;;;;;;;20.20;37.80;;;;;;5049497;28;19925;-61
2021/12/07 07:11:10;;;;;;;;;;;20.20;37.70;;;;;;5067987;28;20032;-61
2021/12/07 07:13:37;;;;;;;;;;;20.20;37.80;;;;;;5081564;28;20023;-60
2021/12/07 07:16:03;;;;;;;;;;;20.20;37.70;;;;;;5053778;28;19928;-56
2021/12/07 07:18:30;;;;;;;;;;;20.20;37.70;;;;;;5051777;28;19978;-54
2021/12/07 07:20:57;;;;;;;;;;;20.20;37.70;;;;;;5072043;28;19929;-59
2021/12/07 07:23:25;;;;;;;;;;;20.20;37.70;;;;;;5066866;28;19972;-58
2021/12/07 07:25:55;;;;;;;;;;;20.20;37.70;;;;;;5074381;28;20007;-53
2021/12/07 07:28:22;;;;;;;;;;;20.20;37.70;;;;;;5075798;28;20018;-51
2021/12/07 07:30:49;;;;;;;;;;;20.20;37.70;;;;;;5075416;28;20369;-58
2021/12/07 07:33:16;;;;;;;;;;;20.20;37.70;;;;;;5093581;28;19924;-57
2021/12/07 07:35:42;;;;;;;;;;;20.20;37.70;;;;;;5092836;28;20011;-54
2021/12/07 07:38:09;;;;;;;;;;;20.20;37.70;;;;;;5072634;28;20093;-62
2021/12/07 07:40:38;;;;;;;;;;;20.20;37.70;;;;;;5108715;27;19928;-55
2021/12/07 07:43:04;;;;;;;;;;;20.20;37.70;;;;;;5094397;28;20403;-55
2021/12/07 07:45:31;;;;;;;;;;;20.20;37.70;;;;;;5092307;28;19928;-60
2021/12/07 07:47:58;;;;;;;;;;;20.20;37.70;;;;;;5068080;28;19932;-53
2021/12/07 07:50:25;;;;;;;;;;;20.20;37.70;;;;;;5101079;28;19986;-53
2021/12/07 07:52:51;;;;;;;;;;;20.20;37.70;;;;;;5093163;28;19932;-52
2021/12/07 07:55:18;;;;;;;;;;;20.20;37.70;;;;;;5089857;28;19970;-57
2021/12/07 07:57:46;;;;;;;;;;;20.20;37.70;;;;;;5091296;28;20081;-56
2021/12/07 08:00:15;;;;;;;;;;;20.20;37.70;;;;;;5083134;28;19954;-60
2021/12/07 08:02:42;;;;;;;;;;;20.20;38.30;;;;;;5104505;27;19924;-57
2021/12/07 08:05:09;;;;;;;;;;;20.20;37.70;;;;;;5108496;28;19927;-56
2021/12/07 08:07:35;;;;;;;;;;;20.20;37.70;;;;;;5074753;28;19966;-56
2021/12/07 08:10:03;;;;;;;;;;;20.20;37.70;;;;;;5120567;27;19923;-57
2021/12/07 08:12:30;;;;;;;;;;;20.20;37.70;;;;;;5108675;28;19928;-55
2021/12/07 08:14:58;;;;;;;;;;;20.20;37.60;;;;;;5094365;28;19964;-59
2021/12/07 08:17:24;;;;;;;;;;;20.20;37.70;;;;;;5093585;28;20294;-57
2021/12/07 08:19:51;;;;;;;;;;;20.20;37.60;;;;;;5093407;28;19928;-57
2021/12/07 08:22:18;;;;;;;;;;;20.20;37.50;;;;;;5093165;28;20062;-61
2021/12/07 08:24:45;;;;;;;;;;;20.20;37.50;;;;;;5073128;28;19924;-57
2021/12/07 08:27:12;;;;;;;;;;;20.30;37.60;;;;;;5072908;28;20391;-57
2021/12/07 08:29:39;;;;;;;;;;;20.20;37.50;;;;;;5091238;28;20472;-58
2021/12/07 08:32:08;;;;;;;;;;;20.30;37.50;;;;;;5072657;28;20018;-58
2021/12/07 08:34:35;;;;;;;;;;;20.20;37.50;;;;;;5095702;28;20015;-59
2021/12/07 08:37:02;;;;;;;;;;;20.30;37.50;;;;;;5093847;28;19924;-56
2021/12/07 08:39:29;;;;;;;;;;;20.30;37.50;;;;;;5097720;28;19967;-56
2021/12/07 08:41:55;;;;;;;;;;;20.30;37.50;;;;;;5073832;28;19971;-60
2021/12/07 08:44:22;;;;;;;;;;;20.30;37.50;;;;;;5073092;28;19930;-57
2021/12/07 08:46:49;;;;;;;;;;;20.30;37.50;;;;;;5108550;27;19967;-59
2021/12/07 08:49:18;;;;;;;;;;;20.30;37.50;;;;;;5072147;28;20061;-59
2021/12/07 08:51:45;;;;;;;;;;;20.30;37.50;;;;;;5075226;28;20023;-60
2021/12/07 08:54:27;;;;;;;;;;;20.30;37.50;;;;;;5093370;28;19942;-56
2021/12/07 08:59:43;;;;;;;;;;;20.30;37.50;;;;;;5071747;28;19978;-56
2021/12/07 09:02:10;;;;;;;;;;;20.30;37.40;;;;;;5080518;28;19989;-55
2021/12/07 09:04:40;;;;;;;;;;;20.30;37.40;;;;;;5098048;28;20027;-56
2021/12/07 09:07:07;;;;;;;;;;;20.30;37.40;;;;;;5102445;28;19963;-58
2021/12/07 09:09:36;;;;;;;;;;;20.30;37.40;;;;;;5092475;28;19928;-57
2021/12/07 09:12:03;;;;;;;;;;;20.30;37.50;;;;;;5090939;28;19931;-56
2021/12/07 09:14:30;;;;;;;;;;;20.30;37.40;;;;;;5102980;28;19949;-62
2021/12/07 09:16:57;;;;;;;;;;;20.30;37.40;;;;;;5102328;28;19937;-57
2021/12/07 09:19:23;;;;;;;;;;;20.30;37.40;;;;;;5086833;28;19934;-59
2021/12/07 09:21:52;;;;;;;;;;;20.40;38.10;;;;;;5097239;27;20013;-62
2021/12/07 09:24:19;;;;;;;;;;;20.30;37.40;;;;;;5090977;28;19959;-61
2021/12/07 09:26:45;;;;;;;;;;;20.30;37.40;;;;;;5092414;28;20292;-57
2021/12/07 09:29:12;;;;;;;;;;;20.30;37.40;;;;;;5103406;28;19963;-59
2021/12/07 09:31:39;;;;;;;;;;;20.30;37.40;;;;;;5104833;28;19924;-59
2021/12/07 09:34:07;;;;;;;;;;;20.30;37.40;;;;;;5084636;28;20394;-55
2021/12/07 09:36:33;;;;;;;;;;;20.30;37.40;;;;;;5103541;28;19930;-55
2021/12/07 09:39:02;;;;;;;;;;;20.30;37.40;;;;;;5086215;28;19924;-57
2021/12/07 09:41:28;;;;;;;;;;;20.40;37.50;;;;;;5092042;28;19970;-58
2021/12/07 09:43:56;;;;;;;;;;;20.40;37.50;;;;;;5082559;28;19924;-54
2021/12/07 09:46:24;;;;;;;;;;;20.40;37.50;;;;;;5077770;28;20024;-55
2021/12/07 09:48:51;;;;;;;;;;;20.40;37.40;;;;;;5090939;28;19924;-58
2021/12/07 09:51:18;;;;;;;;;;;20.40;37.40;;;;;;5070869;28;19928;-52
2021/12/07 09:53:45;;;;;;;;;;;20.40;37.40;;;;;;5070741;28;19928;-55
2021/12/07 09:56:15;;;;;;;;;;;20.40;37.40;;;;;;5091490;28;20013;-55
2021/12/07 09:58:42;;;;;;;;;;;20.40;37.40;;;;;;5071114;28;19928;-57
2021/12/07 10:01:09;;;;;;;;;;;20.40;37.40;;;;;;5097411;28;19932;-60
2021/12/07 10:03:35;;;;;;;;;;;20.40;37.40;;;;;;5087979;28;19939;-57
2021/12/07 10:06:02;;;;;;;;;;;20.40;37.40;;;;;;5071753;28;20051;-56
2021/12/07 10:08:29;;;;;;;;;;;20.40;37.40;;;;;;5071641;28;20404;-60
2021/12/07 10:10:56;;;;;;;;;;;20.40;37.40;;;;;;5085752;28;20349;-59
2021/12/07 10:13:27;;;;;;;;;;;20.40;37.40;;;;;;5087718;28;19931;-57
2021/12/07 10:15:55;;;;;;;;;;;20.40;37.40;;;;;;5085218;28;19932;-58
2021/12/07 10:18:24;;;;;;;;;;;20.40;37.40;;;;;;5091816;28;19928;-64
2021/12/07 10:20:52;;;;;;;;;;;20.40;37.40;;;;;;5090494;28;19928;-59
2021/12/07 10:23:23;;;;;;;;;;;20.40;37.40;;;;;;5094738;28;20035;-56
2021/12/07 10:25:52;;;;;;;;;;;20.40;37.40;;;;;;5091206;28;20376;-57
2021/12/07 10:28:26;;;;;;;;;;;20.40;37.40;;;;;;5101123;28;20023;-57
2021/12/07 10:30:53;;;;;;;;;;;20.40;37.40;;;;;;5096152;28;19935;-58
2021/12/07 10:33:28;;;;;;;;;;;20.40;37.30;;;;;;5087881;28;20288;-58
2021/12/07 10:35:57;;;;;;;;;;;20.40;37.30;;;;;;5098560;28;19927;-55
2021/12/07 10:38:23;;;;;;;;;;;20.40;37.40;;;;;;5090482;28;20016;-55
2021/12/07 10:40:57;;;;;;;;;;;20.40;37.30;;;;;;5070998;28;20023;-59
2021/12/07 10:43:40;;;;;;;;;;;20.40;37.30;;;;;;5103446;28;19969;-57
2021/12/07 10:46:22;;;;;;;;;;;20.40;37.30;;;;;;5089427;28;19934;-60
2021/12/07 10:48:49;;;;;;;;;;;20.40;37.30;;;;;;5093927;28;19925;-55
2021/12/07 10:51:16;;;;;;;;;;;20.40;37.30;;;;;;5102307;28;19963;-60
2021/12/07 10:53:44;;;;;;;;;;;20.40;37.30;;;;;;5088758;28;19924;-58
2021/12/07 10:56:26;;;;;;;;;;;20.40;37.30;;;;;;5077995;28;20020;-53
2021/12/07 10:58:59;;;;;;;;;;;20.40;37.20;;;;;;5091850;28;19928;-60
2021/12/07 11:01:33;;;;;;;;;;;20.40;37.30;;;;;;5074876;28;19963;-59
2021/12/07 11:04:14;;;;;;;;;;;20.40;37.30;;;;;;5070530;28;19935;-52
2021/12/07 11:06:56;;;;;;;;;;;20.40;37.30;;;;;;5087981;28;19971;-57
2021/12/07 11:09:23;;;;;;;;;;;20.40;37.20;;;;;;5085786;28;20356;-53
2021/12/07 11:11:50;;;;;;;;;;;20.40;36.50;;;;;;5071181;28;19924;-53
2021/12/07 11:14:21;;;;;;;;;;;20.30;30.00;;;;;;5061333;28;19924;-57
2021/12/07 11:19:28;;;;;;;;;;;19.90;29.70;;;;;;5079460;28;20322;-60
2021/12/07 11:21:55;;;;;;;;;;;19.80;31.20;;;;;;5090930;28;20063;-66
2021/12/07 11:24:22;;;;;;;;;;;19.80;32.10;;;;;;5087554;28;20027;-60
2021/12/07 11:29:42;;;;;;;;;;;19.70;33.40;;;;;;5092291;28;20398;-60
2021/12/07 11:32:09;;;;;;;;;;;19.70;33.80;;;;;;5098520;28;20341;-60
2021/12/07 11:34:39;;;;;;;;;;;19.70;34.00;;;;;;5092803;28;19954;-59
2021/12/07 11:37:06;;;;;;;;;;;19.70;34.30;;;;;;5096002;28;19931;-56
2021/12/07 11:39:35;;;;;;;;;;;19.70;34.50;;;;;;5096927;28;19959;-59
2021/12/07 11:42:03;;;;;;;;;;;19.80;34.80;;;;;;5103602;28;20372;-60
2021/12/07 11:44:30;;;;;;;;;;;19.80;34.90;;;;;;5094450;28;19924;-57
2021/12/07 11:47:00;;;;;;;;;;;19.80;35.10;;;;;;5092468;28;19997;-58
2021/12/07 11:49:27;;;;;;;;;;;19.80;35.10;;;;;;5099743;28;19927;-65
2021/12/07 11:51:55;;;;;;;;;;;19.90;35.30;;;;;;5095276;28;19944;-56
2021/12/07 11:54:22;;;;;;;;;;;19.90;35.40;;;;;;5073457;28;20018;-61
2021/12/07 11:56:49;;;;;;;;;;;19.90;35.40;;;;;;5091005;28;19931;-57
2021/12/07 11:59:16;;;;;;;;;;;20.00;35.60;;;;;;5075311;28;19951;-57
2021/12/07 12:01:43;;;;;;;;;;;19.90;35.50;;;;;;5070867;28;19985;-57
2021/12/07 12:04:11;;;;;;;;;;;20.00;35.70;;;;;;5085358;28;19924;-62
2021/12/07 12:06:38;;;;;;;;;;;20.00;35.70;;;;;;5083067;28;19928;-58
2021/12/07 12:09:05;;;;;;;;;;;20.00;35.80;;;;;;5103580;28;19946;-57
2021/12/07 12:11:33;;;;;;;;;;;20.00;35.80;;;;;;5102230;28;19938;-57
2021/12/07 12:14:00;;;;;;;;;;;20.10;35.90;;;;;;5096806;28;19970;-58
2021/12/07 12:16:30;;;;;;;;;;;20.00;35.90;;;;;;5076447;28;20403;-59
2021/12/07 12:18:59;;;;;;;;;;;20.10;36.00;;;;;;5100381;28;20407;-58
2021/12/07 12:21:30;;;;;;;;;;;20.10;36.10;;;;;;5064658;28;20365;-57
2021/12/07 12:24:04;;;;;;;;;;;20.10;36.10;;;;;;5095997;28;19935;-55
2021/12/07 12:26:34;;;;;;;;;;;20.10;36.10;;;;;;5076189;28;20042;-55
2021/12/07 12:29:01;;;;;;;;;;;20.10;36.20;;;;;;5076309;28;19970;-61
2021/12/07 12:31:44;;;;;;;;;;;20.10;36.20;;;;;;5073869;28;19923;-64
2021/12/07 12:34:14;;;;;;;;;;;20.10;36.20;;;;;;5072008;28;19928;-58
2021/12/07 12:36:44;;;;;;;;;;;20.10;36.30;;;;;;5088618;28;19935;-62
2021/12/07 12:39:11;;;;;;;;;;;20.10;36.90;;;;;;5103359;28;20305;-52
2021/12/07 12:41:37;;;;;;;;;;;20.10;36.30;;;;;;5087113;28;20352;-54
2021/12/07 12:44:07;;;;;;;;;;;20.10;36.40;;;;;;5094562;28;19924;-56
2021/12/07 12:46:34;;;;;;;;;;;20.10;36.40;;;;;;5101753;28;19927;-57
2021/12/07 12:49:01;;;;;;;;;;;20.10;36.40;;;;;;5094971;28;20018;-54
2021/12/07 12:51:29;;;;;;;;;;;20.20;36.50;;;;;;5075043;28;20062;-55
2021/12/07 12:53:58;;;;;;;;;;;20.10;36.50;;;;;;5093120;28;19932;-56
2021/12/07 12:56:25;;;;;;;;;;;20.20;36.60;;;;;;5072551;28;19924;-54
2021/12/07 12:58:52;;;;;;;;;;;20.10;36.60;;;;;;5098470;28;19955;-58
2021/12/07 13:01:23;;;;;;;;;;;20.20;36.60;;;;;;5100380;28;19946;-54
2021/12/07 13:04:00;;;;;;;;;;;20.20;36.70;;;;;;5107556;28;19925;-54
2021/12/07 13:06:44;;;;;;;;;;;20.20;36.70;;;;;;5091898;28;19947;-55
2021/12/07 13:09:13;;;;;;;;;;;20.20;36.70;;;;;;5099069;28;19934;-56
2021/12/07 13:11:40;;;;;;;;;;;20.20;36.80;;;;;;5078203;28;20035;-52
2021/12/07 13:14:07;;;;;;;;;;;20.20;37.50;;;;;;5084447;28;19968;-51
2021/12/07 13:16:34;;;;;;;;;;;20.30;37.60;;;;;;5104052;28;20018;-63
2021/12/07 13:19:01;;;;;;;;;;;20.30;37.10;;;;;;5089067;28;19931;-57
2021/12/07 13:21:28;;;;;;;;;;;20.30;37.10;;;;;;5090817;28;19960;-55
2021/12/07 13:23:58;;;;;;;;;;;20.30;37.20;;;;;;5091860;28;19928;-58
2021/12/07 13:26:26;;;;;;;;;;;20.30;37.30;;;;;;5109767;27;20026;-59
2021/12/07 13:29:02;;;;;;;;;;;20.30;37.40;;;;;;5093014;28;20031;-56
2021/12/07 13:31:32;;;;;;;;;;;20.40;37.50;;;;;;5096173;28;19927;-60
2021/12/07 13:33:59;;;;;;;;;;;20.40;37.60;;;;;;5097042;28;20003;-53
2021/12/07 13:36:30;;;;;;;;;;;20.40;37.70;;;;;;5108799;28;20016;-59
2021/12/07 13:38:59;;;;;;;;;;;20.50;37.80;;;;;;5095080;28;19958;-55
2021/12/07 13:41:27;;;;;;;;;;;20.50;37.90;;;;;;5087901;28;19967;-55
2021/12/07 13:43:56;;;;;;;;;;;20.50;37.90;;;;;;5098341;28;19924;-54
2021/12/07 13:46:23;;;;;;;;;;;20.50;37.90;;;;;;5083963;28;19931;-58
2021/12/07 13:51:31;;;;;;;;;;;20.60;38.00;;;;;;5080190;28;19923;-58
2021/12/07 13:54:00;;;;;;;;;;;20.60;38.10;;;;;;5097128;28;19938;-59
2021/12/07 13:56:28;;;;;;;;;;;20.70;38.20;;;;;;5071740;28;19939;-56
2021/12/07 13:58:56;;;;;;;;;;;20.70;38.20;;;;;;5088638;28;19931;-54
2021/12/07 14:01:23;;;;;;;;;;;20.70;38.20;;;;;;5083427;28;19924;-57
2021/12/07 14:03:49;;;;;;;;;;;20.70;38.20;;;;;;5069163;28;19924;-54
2021/12/07 14:06:16;;;;;;;;;;;20.70;38.20;;;;;;5081589;28;19974;-59
2021/12/07 14:08:42;;;;;;;;;;;20.80;38.30;;;;;;5084850;28;19927;-56
2021/12/07 14:11:11;;;;;;;;;;;20.80;38.30;;;;;;5075861;28;20031;-57
2021/12/07 14:13:41;;;;;;;;;;;20.80;38.30;;;;;;5091696;28;19937;-54
2021/12/07 14:16:08;;;;;;;;;;;20.80;38.40;;;;;;5088646;28;19924;-57
2021/12/07 14:18:36;;;;;;;;;;;20.80;38.40;;;;;;5089926;28;20022;-57
2021/12/07 14:21:03;;;;;;;;;;;20.80;38.30;;;;;;5074785;28;20060;-56
2021/12/07 14:23:30;;;;;;;;;;;20.80;38.40;;;;;;5071872;28;19924;-54
2021/12/07 14:25:58;;;;;;;;;;;20.90;38.40;;;;;;5082389;28;19964;-56
2021/12/07 14:28:32;;;;;;;;;;;20.90;38.40;;;;;;5092775;28;20373;-60
2021/12/07 14:31:06;;;;;;;;;;;20.90;38.40;;;;;;5086083;28;19974;-58
2021/12/07 14:33:36;;;;;;;;;;;20.90;38.40;;;;;;5086913;28;19927;-54
2021/12/07 14:36:05;;;;;;;;;;;21.00;38.50;;;;;;5073020;28;19938;-55
2021/12/07 14:38:32;;;;;;;;;;;21.00;38.50;;;;;;5091204;28;20022;-58
2021/12/07 14:41:00;;;;;;;;;;;21.00;38.50;;;;;;5088214;28;19923;-61
2021/12/07 14:43:28;;;;;;;;;;;21.00;38.50;;;;;;5087062;28;20061;-53
2021/12/07 14:45:58;;;;;;;;;;;21.00;38.50;;;;;;5092284;28;19972;-59
2021/12/07 14:48:26;;;;;;;;;;;21.10;38.60;;;;;;5093093;28;19991;-54
2021/12/07 14:50:53;;;;;;;;;;;21.00;38.50;;;;;;5089278;28;19935;-51
2021/12/07 14:53:38;;;;;;;;;;;21.10;38.60;;;;;;5069584;28;19963;-52
2021/12/07 14:56:06;;;;;;;;;;;21.10;38.00;;;;;;5086973;28;19924;-50
2021/12/07 14:58:33;;;;;;;;;;;21.00;32.00;;;;;;5083376;28;19994;-50
2021/12/07 15:01:00;;;;;;;;;;;20.80;30.00;;;;;;5085951;28;19924;-52
2021/12/07 15:03:35;;;;;;;;;;;20.60;29.10;;;;;;5082860;28;19928;-53
2021/12/07 15:06:02;;;;;;;;;;;20.30;29.90;;;;;;5092466;28;19932;-58
2021/12/07 15:08:29;;;;;;;;;;;20.20;31.60;;;;;;5089739;28;19935;-56
2021/12/07 15:10:57;;;;;;;;;;;20.10;32.80;;;;;;5096292;28;19936;-56
2021/12/07 15:13:25;;;;;;;;;;;20.10;33.50;;;;;;5089668;28;19924;-59
2021/12/07 15:15:52;;;;;;;;;;;20.10;34.10;;;;;;5086375;28;19924;-54
2021/12/07 15:18:19;;;;;;;;;;;20.10;34.70;;;;;;5089409;28;20287;-55
2021/12/07 15:20:48;;;;;;;;;;;20.20;35.10;;;;;;5092091;28;19924;-56
2021/12/07 15:23:18;;;;;;;;;;;20.20;35.40;;;;;;5089294;28;19978;-56
2021/12/07 15:25:48;;;;;;;;;;;20.30;35.80;;;;;;5076744;28;19924;-56
2021/12/07 15:28:15;;;;;;;;;;;20.30;36.00;;;;;;5090818;28;19932;-55
2021/12/07 15:30:42;;;;;;;;;;;20.40;36.20;;;;;;5069137;28;20004;-58
2021/12/07 15:33:08;;;;;;;;;;;20.50;36.40;;;;;;5087607;28;19932;-58
2021/12/07 15:35:35;;;;;;;;;;;20.50;36.40;;;;;;5092266;28;19974;-57
2021/12/07 15:38:03;;;;;;;;;;;20.50;36.50;;;;;;5074998;28;20411;-53
2021/12/07 15:40:30;;;;;;;;;;;20.60;36.70;;;;;;5091457;28;19925;-58
2021/12/07 15:42:57;;;;;;;;;;;20.60;36.80;;;;;;5100153;28;19952;-53
2021/12/07 15:45:24;;;;;;;;;;;20.70;36.90;;;;;;5091877;28;19985;-51
2021/12/07 15:47:51;;;;;;;;;;;20.70;37.00;;;;;;5089039;28;20391;-53